Wroughton, United Kingdom
Current Conditions -  °F | °C
As of 11:17 PM on Wednesday 26 Nov 2014 (Local Time) from EGVA Reporting Station
Drizzle Drizzle  
Wind Chill: 45°   Ceiling: 1900
Heat Index: 45°   Visibility: 6mi
Dew Point: 45°   Wind: 2mph
Humidity: 100%   Direction: 330°NNW
Pressure: 29.73"   Gusts: NA
Location:  51.52°N, 1.8°W
Report Text: EGVA 262317Z AUTO 33002KT 9999 -DZ FEW009 OVC019 07/07 A2973 RMK AO2 $
Loading
Personal Weather Stations






























Interactive Weather Map New forecast layout! Learn more

10-Day Weather Forecast

Advertisements
Track Severe Weather on mobile